Terminal Aerodrome Forecast
Issued by NWS

Home | Current Version | Previous Version | Text Only | Print | Product List | Glossary On
Versions: 1 2 3 4 5 6 7 8 9 10 11 12 13 14 15 16 17 18 19 20 21 22 23 24 25 26 27 28 29 30 31 32 33 34 35 36 37 38 39 40 41 42 43 44 45 46 47 48 49 50
000
FTUS43 KDDC 010520
TAFGCK
TAF
KGCK 010520Z 0106/0206 31014KT P6SM FEW023 OVC030
     FM010900 34015KT P6SM OVC020
     FM011200 35015G25KT P6SM OVC015
     FM011500 36020G30KT P6SM OVC015
     FM012100 01015G25KT P6SM VCSH OVC015
     FM020300 35006KT P6SM -SHRA OVC010=

USA.gov is the U.S. government's official web portal to all federal, state and local government web resources and services.